Time;durP1;ratioP1;P1;durP2;ratioP2;P2;SDS_P1;SDS_P2;PMS_P1;PMS_P2;Temp;Humidity;BMP_temperature;BMP_pressure;BME280_temperature;BME280_humidity;BME280_pressure;Samples;Min_cycle;Max_cycle;Signal;HPM_P1;HPM_P2
2023/02/11 00:00:56;;;;;;;16.25;11.80;;;9.30;80.20;;;;;;6072274;23;20010;-82
2023/02/11 00:03:22;;;;;;;17.05;10.85;;;9.30;80.20;;;;;;6097561;23;19998;-81
2023/02/11 00:06:03;;;;;;;16.30;11.88;;;9.20;80.10;;;;;;6095012;23;20326;-81
2023/02/11 00:08:28;;;;;;;15.27;10.98;;;9.20;80.10;;;;;;6068850;23;20014;-81
2023/02/11 00:10:55;;;;;;;16.58;11.60;;;9.20;80.20;;;;;;6068586;23;20002;-81
2023/02/11 00:13:22;;;;;;;14.57;10.75;;;9.20;80.20;;;;;;6093514;23;20007;-81
2023/02/11 00:15:48;;;;;;;16.98;11.60;;;9.20;80.10;;;;;;6068185;23;20007;-81
2023/02/11 00:18:13;;;;;;;15.85;11.45;;;9.20;80.20;;;;;;6095646;23;20013;-81
2023/02/11 00:20:40;;;;;;;16.85;11.63;;;9.20;80.20;;;;;;6070222;23;20006;-81
2023/02/11 00:23:05;;;;;;;16.73;11.68;;;9.20;80.20;;;;;;6069740;23;20080;-80
2023/02/11 00:25:31;;;;;;;16.63;11.52;;;9.20;80.20;;;;;;6095102;23;20436;-81
2023/02/11 00:27:56;;;;;;;17.70;12.48;;;9.20;80.20;;;;;;6070018;23;20215;-81
2023/02/11 00:30:22;;;;;;;16.25;11.93;;;9.20;80.30;;;;;;6096305;23;20033;-81
2023/02/11 00:32:48;;;;;;;18.15;12.27;;;9.20;80.20;;;;;;6070535;23;20088;-81
2023/02/11 00:35:13;;;;;;;17.15;12.88;;;9.20;80.30;;;;;;6094264;23;20006;-81
2023/02/11 00:37:39;;;;;;;16.50;11.60;;;9.20;80.20;;;;;;6070260;23;20042;-79
2023/02/11 00:40:05;;;;;;;17.48;12.05;;;9.20;80.20;;;;;;6098150;23;19999;-81
2023/02/11 00:42:30;;;;;;;17.13;12.32;;;9.20;80.20;;;;;;6096140;23;20009;-81
2023/02/11 00:44:56;;;;;;;17.52;11.80;;;9.20;80.20;;;;;;6070140;23;20334;-81
2023/02/11 00:47:21;;;;;;;18.10;12.10;;;9.20;80.30;;;;;;6094743;23;20010;-82
2023/02/11 00:49:47;;;;;;;16.92;12.13;;;9.20;80.30;;;;;;6069895;23;20060;-81
2023/02/11 00:52:12;;;;;;;17.63;11.88;;;9.20;80.20;;;;;;6068501;23;20447;-82
2023/02/11 00:54:39;;;;;;;15.80;11.85;;;9.20;80.30;;;;;;6215717;23;20095;-81
2023/02/11 00:57:04;;;;;;;16.42;12.25;;;9.20;80.20;;;;;;6215134;23;20008;-81
2023/02/11 00:59:30;;;;;;;17.17;12.57;;;9.20;80.20;;;;;;6218110;23;20001;-81
2023/02/11 01:01:55;;;;;;;17.15;11.63;;;9.20;80.20;;;;;;6217395;23;20005;-80
2023/02/11 01:04:20;;;;;;;16.73;11.77;;;9.20;80.20;;;;;;6217519;23;20317;-80
2023/02/11 01:06:46;;;;;;;17.00;12.00;;;9.20;80.20;;;;;;6241133;23;19997;-81
2023/02/11 01:09:11;;;;;;;16.70;11.65;;;9.20;80.20;;;;;;6217624;23;20035;-80
2023/02/11 01:11:37;;;;;;;18.50;12.93;;;9.20;80.20;;;;;;6216045;23;20009;-81
2023/02/11 01:14:03;;;;;;;17.30;12.20;;;9.20;80.20;;;;;;6217376;23;20008;-81
2023/02/11 01:16:28;;;;;;;17.48;12.23;;;9.20;80.20;;;;;;6218194;23;20618;-81
2023/02/11 01:18:54;;;;;;;16.23;11.70;;;9.20;80.20;;;;;;6216620;23;20346;-81
2023/02/11 01:21:19;;;;;;;16.77;11.88;;;9.20;80.20;;;;;;6216933;23;20103;-80
2023/02/11 01:23:45;;;;;;;18.63;12.63;;;9.20;80.20;;;;;;6241859;23;20324;-81
2023/02/11 01:26:10;;;;;;;17.60;12.13;;;9.20;80.20;;;;;;6218003;23;20000;-81
2023/02/11 01:28:36;;;;;;;16.30;11.75;;;9.20;80.20;;;;;;6218140;23;20001;-81
2023/02/11 01:31:02;;;;;;;18.73;12.50;;;9.20;80.20;;;;;;6218130;23;20059;-81
2023/02/11 01:33:28;;;;;;;15.50;11.30;;;9.20;80.30;;;;;;6220671;23;20001;-82
2023/02/11 01:35:54;;;;;;;17.05;11.88;;;9.20;80.30;;;;;;6221019;23;20015;-82
2023/02/11 01:38:24;;;;;;;17.10;12.55;;;9.20;80.30;;;;;;6246241;22;20024;-82
2023/02/11 01:41:00;;;;;;;16.50;12.07;;;9.20;80.30;;;;;;6223152;23;20016;-82
2023/02/11 01:43:29;;;;;;;16.67;12.20;;;9.20;80.40;;;;;;6223335;23;20051;-81
2023/02/11 01:45:57;;;;;;;17.40;11.95;;;9.20;80.40;;;;;;6220200;23;20000;-82
2023/02/11 01:48:37;;;;;;;18.05;12.75;;;9.20;80.30;;;;;;6221973;23;20007;-81
2023/02/11 01:51:11;;;;;;;17.52;12.38;;;9.20;80.30;;;;;;6220450;23;20009;-81
2023/02/11 01:59:15;;;;;;;15.93;11.50;;;9.20;80.40;;;;;;6097909;23;20041;-81
2023/02/11 02:01:45;;;;;;;17.55;12.25;;;9.20;80.40;;;;;;6072173;23;20006;-81
2023/02/11 02:04:14;;;;;;;17.05;12.25;;;9.20;80.40;;;;;;6072232;23;20002;-81
2023/02/11 02:06:54;;;;;;;15.82;11.73;;;9.20;80.40;;;;;;6071451;23;20009;-79
2023/02/11 02:09:27;;;;;;;16.45;11.20;;;9.20;80.40;;;;;;6073311;23;20034;-83
2023/02/11 02:11:53;;;;;;;17.63;12.10;;;9.20;80.40;;;;;;6099018;23;20017;-81
2023/02/11 02:14:19;;;;;;;18.35;12.65;;;9.20;80.40;;;;;;6071243;23;20037;-81
2023/02/11 02:16:45;;;;;;;17.00;12.15;;;9.10;80.30;;;;;;6071304;23;20060;-81
2023/02/11 02:19:33;;;;;;;19.17;12.95;;;9.20;80.40;;;;;;6071187;23;20013;-81
2023/02/11 02:22:20;;;;;;;14.82;11.77;;;9.20;80.40;;;;;;6095736;23;20456;-82
2023/02/11 02:24:59;;;;;;;18.40;12.55;;;9.20;80.40;;;;;;6098835;23;20375;-82
2023/02/11 02:27:40;;;;;;;16.83;12.00;;;9.20;80.40;;;;;;6072487;23;20103;-82
2023/02/11 02:30:23;;;;;;;17.48;12.15;;;9.20;80.40;;;;;;6098233;23;20003;-82
2023/02/11 02:33:07;;;;;;;16.30;11.73;;;9.20;80.50;;;;;;6095991;23;20011;-81
2023/02/11 02:36:03;;;;;;;17.98;12.50;;;9.20;80.50;;;;;;6097404;23;20007;-82
2023/02/11 02:38:57;;;;;;;15.85;11.80;;;9.20;80.50;;;;;;6097564;23;20011;-82
2023/02/11 02:41:30;;;;;;;17.95;12.55;;;9.20;80.50;;;;;;6071784;23;20002;-81
2023/02/11 02:43:56;;;;;;;16.85;12.27;;;9.20;80.50;;;;;;6070846;23;20463;-81
2023/02/11 02:46:31;;;;;;;16.25;11.40;;;9.20;80.50;;;;;;6070960;23;20030;-81
2023/02/11 02:48:57;;;;;;;17.42;12.38;;;9.20;80.50;;;;;;6096307;23;20038;-81
2023/02/11 02:51:29;;;;;;;16.67;12.27;;;9.20;80.60;;;;;;6096092;23;20007;-81
2023/02/11 02:54:19;;;;;;;18.00;12.45;;;9.20;80.50;;;;;;6097029;23;20021;-81
2023/02/11 02:56:47;;;;;;;20.30;12.70;;;9.20;80.50;;;;;;6096916;23;20002;-80
2023/02/11 02:59:33;;;;;;;16.92;11.77;;;9.20;80.50;;;;;;6095351;23;20007;-81
2023/02/11 03:02:27;;;;;;;17.67;11.95;;;9.20;80.60;;;;;;6095530;23;19994;-81
2023/02/11 03:04:58;;;;;;;17.52;12.05;;;9.20;80.50;;;;;;6094344;23;20318;-81
2023/02/11 03:07:44;;;;;;;17.95;12.45;;;9.20;80.60;;;;;;6070038;23;20013;-81
2023/02/11 03:10:20;;;;;;;17.20;12.18;;;9.20;80.50;;;;;;6070421;23;20006;-81
2023/02/11 03:12:46;;;;;;;18.08;12.27;;;9.20;80.60;;;;;;6096450;23;20452;-82
2023/02/11 03:15:13;;;;;;;17.02;12.07;;;9.20;80.60;;;;;;6095152;23;20053;-80
2023/02/11 03:17:43;;;;;;;18.38;12.55;;;9.20;81.10;;;;;;6095299;23;20021;-81
2023/02/11 03:20:11;;;;;;;17.65;12.55;;;9.20;81.10;;;;;;6070197;23;20736;-81
2023/02/11 03:22:51;;;;;;;16.52;11.82;;;9.20;80.60;;;;;;6095751;23;20511;-83
2023/02/11 03:25:18;;;;;;;19.73;12.90;;;9.20;80.50;;;;;;6069755;23;20026;-81
2023/02/11 03:27:53;;;;;;;16.52;11.63;;;9.20;80.50;;;;;;6095560;23;20060;-81
2023/02/11 03:30:28;;;;;;;17.70;11.82;;;9.20;80.60;;;;;;6094265;23;20010;-81
2023/02/11 03:33:07;;;;;;;18.20;12.73;;;9.20;80.60;;;;;;6096231;23;20388;-81
2023/02/11 03:35:46;;;;;;;16.90;11.75;;;9.20;80.60;;;;;;6095342;23;20085;-81
2023/02/11 03:38:19;;;;;;;16.25;11.65;;;9.20;80.60;;;;;;6069878;23;20013;-81
2023/02/11 03:40:46;;;;;;;18.65;12.43;;;9.20;80.70;;;;;;6069631;23;20002;-81
2023/02/11 03:43:17;;;;;;;16.40;11.77;;;9.20;80.60;;;;;;6068942;23;20085;-81
2023/02/11 03:45:44;;;;;;;18.35;12.30;;;9.20;80.70;;;;;;6068959;23;20003;-82
2023/02/11 03:48:22;;;;;;;16.40;11.95;;;9.20;80.70;;;;;;6095799;23;20014;-81
2023/02/11 03:50:50;;;;;;;17.38;12.50;;;9.20;80.70;;;;;;6069834;23;20010;-81
2023/02/11 03:53:17;;;;;;;15.32;11.75;;;9.20;80.70;;;;;;6154171;23;20061;-81
2023/02/11 03:55:46;;;;;;;17.15;12.30;;;9.20;80.70;;;;;;6217895;23;20428;-81
2023/02/11 03:58:12;;;;;;;16.88;11.52;;;9.20;80.70;;;;;;6214733;23;20004;-82
2023/02/11 04:00:40;;;;;;;17.33;12.60;;;9.20;80.70;;;;;;6217577;23;20432;-81
2023/02/11 04:03:07;;;;;;;16.40;11.77;;;9.20;80.70;;;;;;6215694;23;19996;-81
2023/02/11 04:05:32;;;;;;;18.42;12.40;;;9.20;80.70;;;;;;6214952;23;20001;-81
2023/02/11 04:07:58;;;;;;;16.20;11.90;;;9.20;80.70;;;;;;6217144;23;20009;-81
2023/02/11 04:10:24;;;;;;;16.90;12.32;;;9.20;80.70;;;;;;6241647;23;20061;-82
2023/02/11 04:12:49;;;;;;;16.17;12.20;;;9.20;80.70;;;;;;6217373;23;20015;-81
2023/02/11 04:15:15;;;;;;;17.15;11.90;;;9.20;80.70;;;;;;6215196;23;20004;-80
2023/02/11 04:17:41;;;;;;;16.60;12.20;;;9.20;80.70;;;;;;6218481;23;20066;-82
2023/02/11 04:20:07;;;;;;;17.98;12.15;;;9.20;80.70;;;;;;6216474;23;20005;-81
2023/02/11 04:22:32;;;;;;;15.15;11.05;;;9.20;80.70;;;;;;6216321;23;20001;-82
2023/02/11 04:24:58;;;;;;;15.93;11.65;;;9.20;80.80;;;;;;6215608;23;19997;-81
2023/02/11 04:27:23;;;;;;;16.85;12.13;;;9.20;80.70;;;;;;6214952;23;20317;-81
2023/02/11 04:29:49;;;;;;;16.40;12.27;;;9.20;80.70;;;;;;6215786;23;20055;-81
2023/02/11 04:32:14;;;;;;;17.08;11.80;;;9.10;80.70;;;;;;6217010;23;20005;-81
2023/02/11 04:34:40;;;;;;;17.40;12.07;;;9.20;80.80;;;;;;6215661;23;20008;-80
2023/02/11 04:37:06;;;;;;;16.63;11.57;;;9.20;80.80;;;;;;6217108;23;20012;-81
2023/02/11 04:39:31;;;;;;;18.48;12.65;;;9.20;80.80;;;;;;6241118;23;20005;-81
2023/02/11 04:41:57;;;;;;;16.30;11.60;;;9.20;80.80;;;;;;6217080;23;20424;-81
2023/02/11 04:44:22;;;;;;;17.20;12.07;;;9.20;80.80;;;;;;6216412;23;20428;-81
2023/02/11 04:46:48;;;;;;;15.48;10.48;;;9.20;80.80;;;;;;6216624;23;20005;-81
2023/02/11 04:49:15;;;;;;;16.85;12.02;;;9.20;80.80;;;;;;6215164;23;20462;-82
2023/02/11 04:51:40;;;;;;;15.38;11.50;;;9.20;80.80;;;;;;6217134;23;20016;-81
2023/02/11 04:54:06;;;;;;;14.98;10.95;;;9.20;80.90;;;;;;6218828;23;20016;-82
2023/02/11 04:56:31;;;;;;;16.35;11.80;;;9.20;80.90;;;;;;6221935;23;20011;-82
2023/02/11 04:58:57;;;;;;;16.17;10.88;;;9.20;80.90;;;;;;6221683;23;20067;-82
2023/02/11 05:01:23;;;;;;;16.40;12.30;;;9.20;80.90;;;;;;6219432;23;20035;-82
2023/02/11 05:03:48;;;;;;;16.23;11.48;;;9.20;80.90;;;;;;6220630;23;20026;-81
2023/02/11 05:06:14;;;;;;;16.30;11.25;;;9.20;80.90;;;;;;6244824;23;20000;-81
2023/02/11 05:08:39;;;;;;;16.77;12.23;;;9.20;80.90;;;;;;6217670;23;20036;-82
2023/02/11 05:11:06;;;;;;;15.95;11.25;;;9.20;80.90;;;;;;6218215;23;20008;-81
2023/02/11 05:13:32;;;;;;;17.15;11.75;;;9.20;80.80;;;;;;6221220;23;20008;-81
2023/02/11 05:15:57;;;;;;;15.90;11.38;;;9.20;80.80;;;;;;6245350;23;20343;-81
2023/02/11 05:18:23;;;;;;;16.38;11.50;;;9.20;80.80;;;;;;6220987;23;20000;-81
2023/02/11 05:20:48;;;;;;;15.90;11.27;;;9.20;80.90;;;;;;6220289;23;20610;-81
2023/02/11 05:23:14;;;;;;;15.88;11.32;;;9.20;80.90;;;;;;6219620;23;19996;-81
2023/02/11 05:25:39;;;;;;;15.73;11.07;;;9.20;80.90;;;;;;6219540;23;20531;-81
2023/02/11 05:28:05;;;;;;;15.23;11.48;;;9.20;80.90;;;;;;6244794;22;20009;-81
2023/02/11 05:30:31;;;;;;;16.63;11.75;;;9.20;80.90;;;;;;6218708;23;20005;-81
2023/02/11 05:32:56;;;;;;;15.63;11.10;;;9.20;80.90;;;;;;6244566;23;20008;-81
2023/02/11 05:35:23;;;;;;;16.33;12.13;;;9.20;80.90;;;;;;6218752;23;20066;-82
2023/02/11 05:37:48;;;;;;;15.88;10.82;;;9.20;80.90;;;;;;6218551;23;20009;-82
2023/02/11 05:40:14;;;;;;;16.13;11.35;;;9.20;80.90;;;;;;6218661;23;20027;-82
2023/02/11 05:42:40;;;;;;;15.60;11.07;;;9.10;80.90;;;;;;6221630;23;20005;-83
2023/02/11 05:45:06;;;;;;;15.52;11.27;;;9.20;80.90;;;;;;6223024;23;20479;-81
2023/02/11 05:47:32;;;;;;;15.43;10.77;;;9.20;80.90;;;;;;6220852;23;20012;-82
2023/02/11 05:49:57;;;;;;;16.65;11.95;;;9.20;80.90;;;;;;6221318;23;20008;-82
2023/02/11 05:52:23;;;;;;;15.30;10.48;;;9.20;80.90;;;;;;6215755;23;20004;-81
2023/02/11 05:54:49;;;;;;;14.85;10.77;;;9.20;80.90;;;;;;6073683;23;20010;-82
2023/02/11 05:57:15;;;;;;;16.73;11.25;;;9.20;80.90;;;;;;6073828;23;20040;-81
2023/02/11 05:59:41;;;;;;;16.52;11.68;;;9.20;80.90;;;;;;6100020;23;20002;-82
2023/02/11 06:02:08;;;;;;;17.08;11.15;;;9.20;80.90;;;;;;6074171;23;20006;-81
2023/02/11 06:04:34;;;;;;;16.15;11.60;;;9.20;81.00;;;;;;6073753;23;20330;-80
2023/02/11 06:07:00;;;;;;;15.13;10.73;;;9.20;81.00;;;;;;6099673;23;20056;-81
2023/02/11 06:09:25;;;;;;;14.25;10.38;;;9.20;81.00;;;;;;6098266;23;20038;-79
2023/02/11 06:11:51;;;;;;;15.18;11.10;;;9.20;81.00;;;;;;6069200;23;20010;-79
2023/02/11 06:14:16;;;;;;;15.25;11.07;;;9.20;81.00;;;;;;6087469;23;20011;-79
2023/02/11 06:16:42;;;;;;;14.88;10.95;;;9.20;81.10;;;;;;6062635;23;20006;-77
2023/02/11 06:19:08;;;;;;;14.70;10.50;;;9.20;81.00;;;;;;6062998;23;20014;-78
2023/02/11 06:21:33;;;;;;;14.45;10.57;;;9.20;81.00;;;;;;6090046;23;20006;-79
2023/02/11 06:23:59;;;;;;;14.32;10.77;;;9.20;81.00;;;;;;6063181;23;20017;-79
2023/02/11 06:26:24;;;;;;;15.15;10.35;;;9.20;81.00;;;;;;6087575;23;20013;-76
2023/02/11 06:28:50;;;;;;;15.05;11.00;;;9.10;81.00;;;;;;6062174;23;20099;-77
2023/02/11 06:31:16;;;;;;;15.20;10.80;;;9.20;81.00;;;;;;6062231;23;20014;-77
2023/02/11 06:33:42;;;;;;;15.57;10.77;;;9.20;81.00;;;;;;6062201;23;20003;-78
2023/02/11 06:36:17;;;;;;;14.20;10.38;;;9.20;81.00;;;;;;6062073;23;20015;-77
2023/02/11 06:38:43;;;;;;;16.55;11.55;;;9.20;81.00;;;;;;6088762;23;20014;-76
2023/02/11 06:41:10;;;;;;;15.65;11.07;;;9.20;81.00;;;;;;6088145;23;20006;-78
2023/02/11 06:43:35;;;;;;;14.27;10.70;;;9.20;81.00;;;;;;6087973;23;20002;-76
2023/02/11 06:46:01;;;;;;;15.30;10.57;;;9.20;81.00;;;;;;6087901;23;20002;-76
2023/02/11 06:48:27;;;;;;;14.93;10.75;;;9.20;81.00;;;;;;6062187;23;20357;-79
2023/02/11 06:50:52;;;;;;;14.43;10.73;;;9.20;81.00;;;;;;6086341;23;20476;-79
2023/02/11 06:53:18;;;;;;;16.02;10.93;;;9.20;81.00;;;;;;6088221;23;20545;-77
2023/02/11 06:55:43;;;;;;;14.65;10.48;;;9.20;81.00;;;;;;6062882;23;20021;-81
2023/02/11 06:58:09;;;;;;;15.50;11.23;;;9.20;81.00;;;;;;6088552;23;20044;-80
2023/02/11 07:00:36;;;;;;;15.60;11.40;;;9.20;81.00;;;;;;6066572;23;20014;-80
2023/02/11 07:03:02;;;;;;;15.57;11.13;;;9.20;81.10;;;;;;6065118;23;20038;-79
2023/02/11 07:05:28;;;;;;;15.75;11.60;;;9.20;81.20;;;;;;6088856;23;20010;-79
2023/02/11 07:07:53;;;;;;;15.15;10.93;;;9.20;81.20;;;;;;6088231;23;20015;-79
2023/02/11 07:10:19;;;;;;;14.45;10.73;;;9.10;81.10;;;;;;6065155;23;20002;-79
2023/02/11 07:12:44;;;;;;;15.35;11.00;;;9.20;81.20;;;;;;6090378;23;20092;-79
2023/02/11 07:15:10;;;;;;;16.55;11.80;;;9.20;81.10;;;;;;6063622;23;20006;-79
2023/02/11 07:17:35;;;;;;;15.32;10.60;;;9.20;81.20;;;;;;6087558;23;20014;-78
2023/02/11 07:20:01;;;;;;;16.58;10.90;;;9.20;81.20;;;;;;6091523;23;20011;-81
2023/02/11 07:22:27;;;;;;;14.75;10.75;;;9.20;81.10;;;;;;6067183;23;20369;-79
2023/02/11 07:24:52;;;;;;;15.95;10.95;;;9.20;81.20;;;;;;6065327;23;20006;-79
2023/02/11 07:27:18;;;;;;;15.35;11.23;;;9.20;81.10;;;;;;6064667;23;19998;-78
2023/02/11 07:29:45;;;;;;;14.55;10.50;;;9.20;81.10;;;;;;6089069;23;20068;-80
2023/02/11 07:32:11;;;;;;;15.60;10.82;;;9.20;81.10;;;;;;6090222;23;20007;-80
2023/02/11 07:34:37;;;;;;;15.18;10.70;;;9.20;81.20;;;;;;6068060;23;20535;-82
2023/02/11 07:37:03;;;;;;;14.65;10.73;;;9.20;81.10;;;;;;6065744;23;20090;-81
2023/02/11 07:39:28;;;;;;;14.98;10.75;;;9.20;81.20;;;;;;6065459;23;20007;-83
2023/02/11 07:41:55;;;;;;;15.98;10.70;;;9.20;81.20;;;;;;6089548;23;20045;-82
2023/02/11 07:44:21;;;;;;;14.85;10.85;;;9.20;81.20;;;;;;6065130;23;20013;-83
2023/02/11 07:46:48;;;;;;;15.43;11.05;;;9.10;81.10;;;;;;6065184;23;20082;-81
2023/02/11 07:49:13;;;;;;;14.52;10.48;;;9.20;81.20;;;;;;6065779;23;20013;-80
2023/02/11 07:51:39;;;;;;;14.63;10.30;;;9.20;81.20;;;;;;6090851;23;20346;-82
2023/02/11 07:54:05;;;;;;;13.95;10.00;;;9.20;81.20;;;;;;6090845;23;20011;-83
2023/02/11 07:56:31;;;;;;;14.38;10.13;;;9.20;81.20;;;;;;6089804;23;20006;-83
2023/02/11 07:59:00;;;;;;;13.55;10.00;;;9.20;81.20;;;;;;6063813;23;20460;-84
2023/02/11 08:01:27;;;;;;;15.63;10.63;;;9.20;81.30;;;;;;6065149;23;20011;-83
2023/02/11 08:03:54;;;;;;;13.10;9.40;;;9.20;81.20;;;;;;6066504;23;20068;-82
2023/02/11 08:06:22;;;;;;;14.75;10.55;;;9.20;81.30;;;;;;6095999;23;20441;-82
2023/02/11 08:08:48;;;;;;;16.92;10.80;;;9.20;81.30;;;;;;6096716;23;20006;-82
2023/02/11 08:11:23;;;;;;;14.88;10.13;;;9.20;81.30;;;;;;6070773;23;20011;-83
2023/02/11 08:13:49;;;;;;;14.73;10.52;;;9.20;81.30;;;;;;6069576;23;20018;-83
2023/02/11 08:16:19;;;;;;;13.30;10.40;;;9.20;81.30;;;;;;6065608;23;20002;-84
2023/02/11 08:18:46;;;;;;;15.93;11.13;;;9.20;81.30;;;;;;6091286;23;20072;-86
2023/02/11 08:21:11;;;;;;;14.02;10.10;;;9.20;81.30;;;;;;6067035;23;20535;-83
2023/02/11 08:23:39;;;;;;;16.30;11.13;;;9.20;81.30;;;;;;6065800;23;20042;-83
2023/02/11 08:26:08;;;;;;;15.57;10.63;;;9.20;81.30;;;;;;6065541;23;20014;-84
2023/02/11 08:28:38;;;;;;;15.50;10.55;;;9.20;81.30;;;;;;6065392;23;20906;-83
2023/02/11 08:31:09;;;;;;;13.82;10.32;;;9.20;81.30;;;;;;6063981;23;20022;-88
2023/02/11 08:33:35;;;;;;;13.70;9.80;;;9.20;81.30;;;;;;6064802;23;20010;-83
2023/02/11 08:36:11;;;;;;;14.93;9.88;;;9.20;81.30;;;;;;6064430;23;20019;-82
2023/02/11 08:38:37;;;;;;;13.50;9.63;;;9.20;81.30;;;;;;6065995;23;20040;-83
2023/02/11 08:41:02;;;;;;;14.35;10.68;;;9.20;81.30;;;;;;6090859;23;20021;-82
2023/02/11 08:43:28;;;;;;;13.85;9.90;;;9.20;81.30;;;;;;6065657;23;20090;-81
2023/02/11 08:45:53;;;;;;;13.70;10.30;;;9.20;81.30;;;;;;6065736;23;20486;-81
2023/02/11 08:48:19;;;;;;;14.43;9.82;;;9.20;81.30;;;;;;6090258;23;20010;-80
2023/02/11 08:50:44;;;;;;;15.10;10.23;;;9.20;81.30;;;;;;6104941;23;20025;-81
2023/02/11 08:53:10;;;;;;;15.27;10.77;;;9.20;81.40;;;;;;6122623;23;20527;-81
2023/02/11 08:55:35;;;;;;;14.63;10.35;;;9.20;81.40;;;;;;6212475;23;20008;-81
2023/02/11 08:58:01;;;;;;;14.27;10.60;;;9.20;81.40;;;;;;6212097;23;20435;-81
2023/02/11 09:00:26;;;;;;;15.23;11.10;;;9.20;81.40;;;;;;6217551;23;20024;-81
2023/02/11 09:02:52;;;;;;;13.32;9.68;;;9.20;81.40;;;;;;6217125;23;20024;-82
2023/02/11 09:05:18;;;;;;;13.75;10.18;;;9.30;81.40;;;;;;6213312;23;20427;-82
2023/02/11 09:07:43;;;;;;;15.00;10.57;;;9.30;81.40;;;;;;6214911;23;20009;-80
2023/02/11 09:10:09;;;;;;;13.85;10.10;;;9.20;81.30;;;;;;6213067;23;20544;-84
2023/02/11 09:12:34;;;;;;;14.13;9.88;;;9.20;81.40;;;;;;6214689;23;20371;-82
2023/02/11 09:15:00;;;;;;;14.75;10.05;;;9.20;81.40;;;;;;6213646;23;20009;-81
2023/02/11 09:17:26;;;;;;;14.95;10.45;;;9.20;81.40;;;;;;6211983;23;20623;-84
2023/02/11 09:19:52;;;;;;;13.30;10.43;;;9.20;81.40;;;;;;6212264;23;20012;-83
2023/02/11 09:22:18;;;;;;;13.65;9.52;;;9.20;81.40;;;;;;6213854;23;20435;-80
2023/02/11 09:24:44;;;;;;;14.88;10.35;;;9.20;81.40;;;;;;6215425;23;20001;-86
2023/02/11 09:30:29;;;;;;;14.82;10.32;;;9.20;81.30;;;;;;6120909;23;20475;-82
2023/02/11 09:32:57;;;;;;;14.60;10.27;;;9.20;81.30;;;;;;6122333;23;20010;-82
2023/02/11 09:44:51;;;;;;;14.63;10.38;;;9.20;81.40;;;;;;6104877;23;20329;-81
2023/02/11 09:47:27;;;;;;;14.30;10.10;;;10.50;82.10;;;;;;6098151;23;20003;-83
2023/02/11 09:50:00;;;;;;;14.70;10.32;;;9.20;81.40;;;;;;6122867;23;20002;-81
2023/02/11 09:52:44;;;;;;;20.30;14.38;;;9.30;81.40;;;;;;6098183;23;20006;-82
2023/02/11 09:55:26;;;;;;;18.35;12.93;;;9.20;81.50;;;;;;6098107;23;20010;-82
2023/02/11 09:57:52;;;;;;;21.88;13.18;;;9.20;81.50;;;;;;6097792;23;20399;-81
2023/02/11 10:00:40;;;;;;;25.65;16.17;;;9.20;81.50;;;;;;6095658;23;20006;-82
2023/02/11 10:03:20;;;;;;;29.27;19.50;;;9.20;82.10;;;;;;6111073;23;20010;-82
2023/02/11 10:06:08;;;;;;;27.38;19.17;;;9.10;82.80;;;;;;6095684;23;20139;-84
2023/02/11 10:08:57;;;;;;;82.22;22.15;;;9.10;83.10;;;;;;6097409;23;20017;-83
2023/02/11 10:11:43;;;;;;;54.25;20.13;;;9.10;83.40;;;;;;6108675;23;20010;-84
2023/02/11 10:14:18;;;;;;;42.05;19.45;;;9.10;83.20;;;;;;6101091;23;20049;-84
2023/02/11 10:17:07;;;;;;;63.53;20.92;;;9.10;83.30;;;;;;6098285;23;20452;-83
2023/02/11 10:20:07;;;;;;;42.67;18.70;;;9.10;83.50;;;;;;6098410;23;20021;-81
2023/02/11 10:22:42;;;;;;;42.38;19.13;;;9.10;83.40;;;;;;6098908;23;20006;-82
2023/02/11 10:25:35;;;;;;;34.95;18.75;;;9.10;83.30;;;;;;6099041;23;20002;-84
2023/02/11 10:28:11;;;;;;;33.53;18.02;;;9.20;83.10;;;;;;6104435;23;20018;-81
2023/02/11 10:30:41;;;;;;;26.52;18.08;;;9.10;83.00;;;;;;6125004;23;20084;-83
2023/02/11 10:33:23;;;;;;;33.80;18.45;;;9.20;83.50;;;;;;6124468;23;20344;-82
2023/02/11 10:35:49;;;;;;;30.20;18.48;;;9.20;82.90;;;;;;6098118;23;20009;-80
2023/02/11 10:38:14;;;;;;;27.60;17.77;;;9.20;82.70;;;;;;6098114;23;20006;-81
2023/02/11 10:40:40;;;;;;;29.40;17.13;;;9.20;82.70;;;;;;6159887;23;20023;-83
2023/02/11 10:43:10;;;;;;;30.52;17.92;;;9.20;82.60;;;;;;6249305;23;20100;-83
2023/02/11 10:45:47;;;;;;;27.13;17.65;;;9.20;82.60;;;;;;6247647;23;20027;-80
2023/02/11 10:48:36;;;;;;;34.58;17.92;;;9.20;82.60;;;;;;6247265;22;20058;-80
2023/02/11 10:51:10;;;;;;;27.23;16.65;;;9.20;82.60;;;;;;6245896;23;20437;-81
2023/02/11 10:53:36;;;;;;;25.77;17.02;;;9.20;82.60;;;;;;6247396;23;20024;-81
2023/02/11 10:56:03;;;;;;;23.95;17.35;;;9.20;82.60;;;;;;6243854;23;20015;-75
2023/02/11 10:58:39;;;;;;;27.17;17.80;;;9.20;82.60;;;;;;6238646;22;20727;-78
2023/02/11 11:01:06;;;;;;;28.02;17.55;;;9.20;82.60;;;;;;6242294;23;20000;-81
2023/02/11 11:03:37;;;;;;;27.15;17.27;;;9.20;82.60;;;;;;6244240;23;20091;-80
2023/02/11 11:06:06;;;;;;;27.88;17.45;;;9.20;82.50;;;;;;6241928;23;20075;-80
2023/02/11 11:08:46;;;;;;;30.90;17.30;;;9.20;82.50;;;;;;6241906;22;20716;-79
2023/02/11 11:11:15;;;;;;;26.20;16.42;;;9.20;82.40;;;;;;6244671;22;20004;-83
2023/02/11 11:13:52;;;;;;;23.98;16.15;;;9.20;82.40;;;;;;6247994;22;20004;-87
2023/02/11 11:16:28;;;;;;;26.75;16.80;;;9.20;82.30;;;;;;6245124;23;20001;-86
2023/02/11 11:19:06;;;;;;;25.75;16.55;;;9.20;82.20;;;;;;6254090;22;20561;-84
2023/02/11 11:21:35;;;;;;;22.98;15.50;;;9.30;82.20;;;;;;6252386;23;20023;-84
2023/02/11 11:24:02;;;;;;;24.77;16.40;;;9.20;82.00;;;;;;6245777;22;20309;-87
2023/02/11 11:26:43;;;;;;;23.95;17.13;;;9.20;82.00;;;;;;6243083;23;20457;-83
2023/02/11 11:29:15;;;;;;;25.35;16.65;;;9.20;82.00;;;;;;6242575;22;20338;-84
2023/02/11 11:31:50;;;;;;;26.45;16.40;;;9.20;82.10;;;;;;6247446;23;20505;-84
2023/02/11 11:34:25;;;;;;;22.15;15.80;;;9.20;82.00;;;;;;6246946;23;20090;-84
2023/02/11 11:36:51;;;;;;;22.25;15.85;;;9.30;82.00;;;;;;6245550;23;20042;-83
2023/02/11 11:39:21;;;;;;;23.42;15.55;;;9.30;82.00;;;;;;6245795;22;20393;-84
2023/02/11 11:41:56;;;;;;;24.90;16.17;;;9.30;82.00;;;;;;6245655;23;20008;-84
2023/02/11 11:44:36;;;;;;;25.13;16.13;;;9.30;82.00;;;;;;6243369;23;20004;-83
2023/02/11 11:47:10;;;;;;;25.67;15.93;;;9.30;81.90;;;;;;6242899;22;20004;-83
2023/02/11 11:50:02;;;;;;;21.48;15.02;;;9.20;81.80;;;;;;6245091;23;20008;-82
2023/02/11 11:52:45;;;;;;;19.98;14.68;;;9.30;81.90;;;;;;6244817;23;20024;-84
2023/02/11 11:55:25;;;;;;;23.27;15.10;;;9.30;82.00;;;;;;6245763;23;20012;-88
2023/02/11 11:57:51;;;;;;;21.65;15.18;;;9.20;81.90;;;;;;6244244;22;20064;-84
2023/02/11 12:00:36;;;;;;;22.52;15.10;;;9.30;82.00;;;;;;6245684;23;20439;-81
2023/02/11 12:03:30;;;;;;;21.98;14.60;;;9.30;81.90;;;;;;6247008;22;20059;-82
2023/02/11 12:06:07;;;;;;;21.98;13.80;;;9.30;81.90;;;;;;6256795;23;19996;-84
2023/02/11 12:09:17;;;;;;;20.88;14.20;;;9.30;82.40;;;;;;6235183;22;20378;-81
2023/02/11 12:11:51;;;;;;;19.83;14.07;;;9.30;81.90;;;;;;6220159;23;20039;-82
2023/02/11 12:14:54;;;;;;;23.48;14.90;;;10.60;82.70;;;;;;6219482;23;20028;-83
2023/02/11 12:17:41;;;;;;;21.70;14.45;;;9.20;81.80;;;;;;6219966;23;20412;-81
2023/02/11 12:20:20;;;;;;;22.45;14.80;;;9.30;81.90;;;;;;6219302;23;20687;-81
2023/02/11 12:22:58;;;;;;;20.92;13.25;;;9.30;81.90;;;;;;6220225;23;20004;-85
2023/02/11 12:25:49;;;;;;;21.45;14.57;;;9.20;81.90;;;;;;6221495;23;20020;-80
2023/02/11 12:34:23;;;;;;;;;;;;;;;;;;;;;
2023/02/11 12:40:22;;;;;;;20.65;14.00;;;9.20;81.90;;;;;;6099086;23;20051;-80
2023/02/11 12:46:39;;;;;;;19.25;13.50;;;9.30;81.90;;;;;;6244703;23;20011;-79
2023/02/11 12:49:34;;;;;;;20.58;13.73;;;9.20;81.80;;;;;;6216178;23;20019;-78
2023/02/11 12:52:07;;;;;;;20.02;13.55;;;9.20;81.90;;;;;;6167313;23;20522;-80
2023/02/11 12:54:44;;;;;;;21.20;13.80;;;9.30;81.90;;;;;;6217127;23;20505;-79
2023/02/11 12:57:21;;;;;;;21.27;14.35;;;9.30;81.90;;;;;;6242286;23;20343;-80
2023/02/11 13:00:15;;;;;;;18.95;13.25;;;9.30;82.40;;;;;;6214480;23;20067;-79
2023/02/11 13:03:06;;;;;;;19.60;14.30;;;9.30;81.90;;;;;;6217354;23;20003;-79
2023/02/11 13:05:51;;;;;;;22.50;13.88;;;9.30;81.90;;;;;;6220598;23;20351;-79
2023/02/11 13:08:36;;;;;;;19.60;13.43;;;9.30;81.90;;;;;;6218207;23;20154;-78
2023/02/11 13:11:11;;;;;;;19.67;13.95;;;9.30;81.80;;;;;;6216339;23;20012;-81
2023/02/11 13:13:45;;;;;;;19.55;13.50;;;9.30;81.70;;;;;;6217713;23;20008;-81
2023/02/11 13:16:19;;;;;;;20.27;13.27;;;9.30;81.70;;;;;;6215041;23;20419;-78
2023/02/11 13:18:51;;;;;;;18.52;12.60;;;9.30;81.70;;;;;;6217455;23;20058;-78
2023/02/11 13:21:41;;;;;;;20.20;13.73;;;9.30;81.80;;;;;;6244648;23;20039;-79
2023/02/11 13:24:12;;;;;;;19.60;12.88;;;9.30;81.80;;;;;;6219111;23;20451;-80
2023/02/11 13:26:48;;;;;;;18.97;13.03;;;9.30;81.80;;;;;;6218075;23;20015;-78